sensor_id;sensor_type;location;lat;lon;timestamp;temperature;humidity
9939;DHT22;5008;50.656;7.188;2023-04-01T04:02:20;10.70;99.90
9939;DHT22;5008;50.656;7.188;2023-04-01T04:04:46;10.70;99.90
9939;DHT22;5008;50.656;7.188;2023-04-01T04:07:13;10.80;99.90
9939;DHT22;5008;50.656;7.188;2023-04-01T04:09:40;10.70;99.90
9939;DHT22;5008;50.656;7.188;2023-04-01T04:12:07;10.80;99.90
9939;DHT22;5008;50.656;7.188;2023-04-01T04:14:34;10.80;99.90
9939;DHT22;5008;50.656;7.188;2023-04-01T04:17:00;10.90;99.90
9939;DHT22;5008;50.656;7.188;2023-04-01T04:19:33;10.90;99.90
9939;DHT22;5008;50.656;7.188;2023-04-01T04:22:00;10.80;99.90
9939;DHT22;5008;50.656;7.188;2023-04-01T04:24:27;10.90;99.90
9939;DHT22;5008;50.656;7.188;2023-04-01T04:26:54;10.80;99.90
9939;DHT22;5008;50.656;7.188;2023-04-01T04:29:21;10.80;99.90
9939;DHT22;5008;50.656;7.188;2023-04-01T04:31:48;10.80;99.90
9939;DHT22;5008;50.656;7.188;2023-04-01T04:34:14;10.80;99.90
9939;DHT22;5008;50.656;7.188;2023-04-01T04:36:43;10.90;99.90
9939;DHT22;5008;50.656;7.188;2023-04-01T04:39:09;10.90;99.90
9939;DHT22;5008;50.656;7.188;2023-04-01T04:41:37;10.90;99.90
9939;DHT22;5008;50.656;7.188;2023-04-01T04:44:04;10.80;99.90
9939;DHT22;5008;50.656;7.188;2023-04-01T04:46:31;10.80;99.90
9939;DHT22;5008;50.656;7.188;2023-04-01T04:48:58;10.90;99.90
9939;DHT22;5008;50.656;7.188;2023-04-01T04:51:25;10.80;99.90
9939;DHT22;5008;50.656;7.188;2023-04-01T04:53:53;10.80;99.90
9939;DHT22;5008;50.656;7.188;2023-04-01T04:56:21;10.90;99.90
9939;DHT22;5008;50.656;7.188;2023-04-01T04:58:50;10.90;99.90
9939;DHT22;5008;50.656;7.188;2023-04-01T05:01:17;10.90;99.90
9939;DHT22;5008;50.656;7.188;2023-04-01T05:03:45;10.80;99.90
9939;DHT22;5008;50.656;7.188;2023-04-01T05:06:13;10.80;99.90
9939;DHT22;5008;50.656;7.188;2023-04-01T05:08:41;10.70;99.90
9939;DHT22;5008;50.656;7.188;2023-04-01T05:11:12;10.80;99.90
9939;DHT22;5008;50.656;7.188;2023-04-01T05:13:39;10.70;99.90
9939;DHT22;5008;50.656;7.188;2023-04-01T05:16:08;10.80;99.90
9939;DHT22;5008;50.656;7.188;2023-04-01T05:18:35;10.70;99.90
9939;DHT22;5008;50.656;7.188;2023-04-01T05:21:02;10.60;99.90
9939;DHT22;5008;50.656;7.188;2023-04-01T05:23:31;10.60;99.90
9939;DHT22;5008;50.656;7.188;2023-04-01T05:25:57;10.60;99.90
9939;DHT22;5008;50.656;7.188;2023-04-01T05:28:26;10.60;99.90
9939;DHT22;5008;50.656;7.188;2023-04-01T05:30:52;10.60;99.90
9939;DHT22;5008;50.656;7.188;2023-04-01T05:33:19;10.60;99.90
9939;DHT22;5008;50.656;7.188;2023-04-01T05:35:46;10.60;99.90
9939;DHT22;5008;50.656;7.188;2023-04-01T05:38:13;10.60;99.90
9939;DHT22;5008;50.656;7.188;2023-04-01T05:40:40;10.60;99.90
9939;DHT22;5008;50.656;7.188;2023-04-01T05:43:06;10.60;99.90
9939;DHT22;5008;50.656;7.188;2023-04-01T05:45:35;10.70;99.90
9939;DHT22;5008;50.656;7.188;2023-04-01T05:48:02;10.60;99.90
9939;DHT22;5008;50.656;7.188;2023-04-01T05:50:29;10.70;99.90
9939;DHT22;5008;50.656;7.188;2023-04-01T05:52:55;10.70;99.90
9939;DHT22;5008;50.656;7.188;2023-04-01T05:55:22;10.70;99.90
9939;DHT22;5008;50.656;7.188;2023-04-01T05:57:49;10.70;99.90
9939;DHT22;5008;50.656;7.188;2023-04-01T06:00:16;10.70;99.90
9939;DHT22;5008;50.656;7.188;2023-04-01T06:02:46;10.70;99.90
9939;DHT22;5008;50.656;7.188;2023-04-01T06:05:17;10.80;99.90
9939;DHT22;5008;50.656;7.188;2023-04-01T06:07:45;10.80;99.90
9939;DHT22;5008;50.656;7.188;2023-04-01T06:10:14;10.70;99.90
9939;DHT22;5008;50.656;7.188;2023-04-01T06:12:48;10.80;99.90
9939;DHT22;5008;50.656;7.188;2023-04-01T06:15:25;10.70;99.90
9939;DHT22;5008;50.656;7.188;2023-04-01T06:18:19;10.80;99.90
9939;DHT22;5008;50.656;7.188;2023-04-01T06:20:59;10.80;99.90
9939;DHT22;5008;50.656;7.188;2023-04-01T06:23:38;10.80;99.90
9939;DHT22;5008;50.656;7.188;2023-04-01T06:26:16;10.80;99.90
9939;DHT22;5008;50.656;7.188;2023-04-01T06:29:14;10.80;99.90
9939;DHT22;5008;50.656;7.188;2023-04-01T06:32:09;10.80;99.90
9939;DHT22;5008;50.656;7.188;2023-04-01T06:35:04;10.80;99.90
9939;DHT22;5008;50.656;7.188;2023-04-01T06:37:56;10.80;99.90
9939;DHT22;5008;50.656;7.188;2023-04-01T06:40:41;10.80;99.90
9939;DHT22;5008;50.656;7.188;2023-04-01T06:43:15;10.90;99.90
9939;DHT22;5008;50.656;7.188;2023-04-01T06:45:49;10.90;99.90
9939;DHT22;5008;50.656;7.188;2023-04-01T06:48:39;10.90;99.90
9939;DHT22;5008;50.656;7.188;2023-04-01T06:51:19;11.00;99.90
9939;DHT22;5008;50.656;7.188;2023-04-01T06:53:54;11.00;99.90
9939;DHT22;5008;50.656;7.188;2023-04-01T06:56:25;11.00;99.90
9939;DHT22;5008;50.656;7.188;2023-04-01T06:58:56;11.00;99.90
9939;DHT22;5008;50.656;7.188;2023-04-01T07:01:27;11.00;99.90
9939;DHT22;5008;50.656;7.188;2023-04-01T07:03:58;11.10;99.90
9939;DHT22;5008;50.656;7.188;2023-04-01T07:06:31;11.10;99.90
9939;DHT22;5008;50.656;7.188;2023-04-01T07:09:00;11.10;99.90
9939;DHT22;5008;50.656;7.188;2023-04-01T07:11:31;11.10;99.90
9939;DHT22;5008;50.656;7.188;2023-04-01T07:14:01;11.20;99.90
9939;DHT22;5008;50.656;7.188;2023-04-01T07:16:32;11.20;99.90
9939;DHT22;5008;50.656;7.188;2023-04-01T07:19:03;11.30;99.90
9939;DHT22;5008;50.656;7.188;2023-04-01T07:21:36;11.40;99.90
9939;DHT22;5008;50.656;7.188;2023-04-01T07:24:10;11.40;99.90
9939;DHT22;5008;50.656;7.188;2023-04-01T07:26:38;11.50;99.90
9939;DHT22;5008;50.656;7.188;2023-04-01T07:29:09;11.50;99.90
9939;DHT22;5008;50.656;7.188;2023-04-01T07:34:43;11.60;99.90
9939;DHT22;5008;50.656;7.188;2023-04-01T07:37:16;11.60;99.90
9939;DHT22;5008;50.656;7.188;2023-04-01T07:39:50;11.60;99.90
9939;DHT22;5008;50.656;7.188;2023-04-01T07:42:26;11.70;99.90
9939;DHT22;5008;50.656;7.188;2023-04-01T07:45:04;11.80;99.90
9939;DHT22;5008;50.656;7.188;2023-04-01T07:47:41;11.80;99.90
9939;DHT22;5008;50.656;7.188;2023-04-01T07:50:19;11.90;99.90
9939;DHT22;5008;50.656;7.188;2023-04-01T07:52:55;11.90;99.90
9939;DHT22;5008;50.656;7.188;2023-04-01T07:55:30;11.80;99.90
9939;DHT22;5008;50.656;7.188;2023-04-01T07:58:06;11.80;99.90
9939;DHT22;5008;50.656;7.188;2023-04-01T08:00:40;11.70;99.90
9939;DHT22;5008;50.656;7.188;2023-04-01T08:03:21;11.60;99.90
9939;DHT22;5008;50.656;7.188;2023-04-01T08:05:55;11.50;99.90
9939;DHT22;5008;50.656;7.188;2023-04-01T08:08:32;11.60;99.90
9939;DHT22;5008;50.656;7.188;2023-04-01T08:11:11;11.50;99.90
9939;DHT22;5008;50.656;7.188;2023-04-01T08:13:44;11.60;99.90
9939;DHT22;5008;50.656;7.188;2023-04-01T08:16:16;11.60;99.90
9939;DHT22;5008;50.656;7.188;2023-04-01T08:18:50;11.60;99.90
9939;DHT22;5008;50.656;7.188;2023-04-01T08:21:22;11.70;99.90
9939;DHT22;5008;50.656;7.188;2023-04-01T08:23:52;11.80;99.90
9939;DHT22;5008;50.656;7.188;2023-04-01T08:26:28;11.80;99.90
9939;DHT22;5008;50.656;7.188;2023-04-01T08:29:00;12.00;99.90
9939;DHT22;5008;50.656;7.188;2023-04-01T08:31:33;12.10;99.90
9939;DHT22;5008;50.656;7.188;2023-04-01T08:34:03;12.20;99.90
9939;DHT22;5008;50.656;7.188;2023-04-01T08:36:34;12.10;99.90
9939;DHT22;5008;50.656;7.188;2023-04-01T08:39:06;12.30;99.90
9939;DHT22;5008;50.656;7.188;2023-04-01T08:41:56;12.40;99.90
9939;DHT22;5008;50.656;7.188;2023-04-01T08:44:37;12.40;99.90
9939;DHT22;5008;50.656;7.188;2023-04-01T08:47:24;12.50;99.90
9939;DHT22;5008;50.656;7.188;2023-04-01T08:50:30;12.40;99.90
9939;DHT22;5008;50.656;7.188;2023-04-01T08:53:06;12.40;99.90
9939;DHT22;5008;50.656;7.188;2023-04-01T08:55:44;12.40;99.90
9939;DHT22;5008;50.656;7.188;2023-04-01T09:01:51;12.20;99.90
9939;DHT22;5008;50.656;7.188;2023-04-01T09:04:40;12.40;99.90
9939;DHT22;5008;50.656;7.188;2023-04-01T09:07:23;12.30;99.90
9939;DHT22;5008;50.656;7.188;2023-04-01T09:10:29;12.20;99.90
9939;DHT22;5008;50.656;7.188;2023-04-01T09:13:16;12.30;99.90
9939;DHT22;5008;50.656;7.188;2023-04-01T09:16:18;12.40;99.90
9939;DHT22;5008;50.656;7.188;2023-04-01T09:19:04;12.30;99.90
9939;DHT22;5008;50.656;7.188;2023-04-01T09:24:42;12.50;99.90
9939;DHT22;5008;50.656;7.188;2023-04-01T09:27:26;12.50;99.90
9939;DHT22;5008;50.656;7.188;2023-04-01T09:30:11;12.50;99.90
9939;DHT22;5008;50.656;7.188;2023-04-01T09:35:59;12.50;99.90
9939;DHT22;5008;50.656;7.188;2023-04-01T09:38:30;12.50;99.90
9939;DHT22;5008;50.656;7.188;2023-04-01T09:41:06;12.50;99.90
9939;DHT22;5008;50.656;7.188;2023-04-01T09:43:58;12.50;99.90
9939;DHT22;5008;50.656;7.188;2023-04-01T09:46:40;12.50;99.90
9939;DHT22;5008;50.656;7.188;2023-04-01T09:49:32;12.50;99.90
9939;DHT22;5008;50.656;7.188;2023-04-01T09:52:10;12.60;99.90
9939;DHT22;5008;50.656;7.188;2023-04-01T09:54:58;12.50;99.90
9939;DHT22;5008;50.656;7.188;2023-04-01T09:57:53;12.60;99.90
9939;DHT22;5008;50.656;7.188;2023-04-01T10:00:49;12.60;99.90
9939;DHT22;5008;50.656;7.188;2023-04-01T10:03:58;12.60;99.90
9939;DHT22;5008;50.656;7.188;2023-04-01T10:07:15;12.60;99.90
9939;DHT22;5008;50.656;7.188;2023-04-01T10:10:32;12.60;99.90
9939;DHT22;5008;50.656;7.188;2023-04-01T10:16:09;12.60;99.90
9939;DHT22;5008;50.656;7.188;2023-04-01T10:19:02;12.50;99.90
9939;DHT22;5008;50.656;7.188;2023-04-01T10:21:58;12.50;99.90
9939;DHT22;5008;50.656;7.188;2023-04-01T10:27:30;12.80;99.90
9939;DHT22;5008;50.656;7.188;2023-04-01T10:36:51;13.00;99.90
9939;DHT22;5008;50.656;7.188;2023-04-01T10:46:05;13.00;99.90
9939;DHT22;5008;50.656;7.188;2023-04-01T10:52:05;13.20;99.90
9939;DHT22;5008;50.656;7.188;2023-04-01T10:54:46;13.40;99.90
9939;DHT22;5008;50.656;7.188;2023-04-01T10:57:35;13.50;99.90
9939;DHT22;5008;50.656;7.188;2023-04-01T11:00:23;13.60;99.90
9939;DHT22;5008;50.656;7.188;2023-04-01T11:06:29;13.40;99.90
9939;DHT22;5008;50.656;7.188;2023-04-01T11:15:14;13.20;99.90
9939;DHT22;5008;50.656;7.188;2023-04-01T11:24:18;13.20;99.90
9939;DHT22;5008;50.656;7.188;2023-04-01T11:26:53;13.10;99.90
9939;DHT22;5008;50.656;7.188;2023-04-01T11:29:48;13.10;99.90
9939;DHT22;5008;50.656;7.188;2023-04-01T11:32:28;13.10;99.90
9939;DHT22;5008;50.656;7.188;2023-04-01T11:35:19;13.00;99.90
9939;DHT22;5008;50.656;7.188;2023-04-01T11:37:54;13.00;99.90
9939;DHT22;5008;50.656;7.188;2023-04-01T11:40:28;13.00;99.90
9939;DHT22;5008;50.656;7.188;2023-04-01T11:43:02;13.20;99.90
9939;DHT22;5008;50.656;7.188;2023-04-01T11:45:36;13.30;99.90
9939;DHT22;5008;50.656;7.188;2023-04-01T11:48:25;13.40;99.90
9939;DHT22;5008;50.656;7.188;2023-04-01T11:51:09;13.40;99.90
9939;DHT22;5008;50.656;7.188;2023-04-01T11:53:44;13.60;99.90
9939;DHT22;5008;50.656;7.188;2023-04-01T11:56:21;13.60;99.90
9939;DHT22;5008;50.656;7.188;2023-04-01T12:01:59;13.80;99.90
9939;DHT22;5008;50.656;7.188;2023-04-01T12:04:51;13.80;99.90
9939;DHT22;5008;50.656;7.188;2023-04-01T12:07:37;13.90;99.90
9939;DHT22;5008;50.656;7.188;2023-04-01T12:10:17;13.80;99.90
9939;DHT22;5008;50.656;7.188;2023-04-01T12:12:54;13.80;99.90
9939;DHT22;5008;50.656;7.188;2023-04-01T12:15:31;13.70;99.90
9939;DHT22;5008;50.656;7.188;2023-04-01T12:18:10;13.80;99.90
9939;DHT22;5008;50.656;7.188;2023-04-01T12:20:46;13.80;99.90
9939;DHT22;5008;50.656;7.188;2023-04-01T12:23:30;13.70;99.90
9939;DHT22;5008;50.656;7.188;2023-04-01T12:26:23;13.80;99.90
9939;DHT22;5008;50.656;7.188;2023-04-01T12:29:08;13.70;99.90
9939;DHT22;5008;50.656;7.188;2023-04-01T12:31:50;13.60;99.90
9939;DHT22;5008;50.656;7.188;2023-04-01T12:34:39;13.60;99.90
9939;DHT22;5008;50.656;7.188;2023-04-01T12:37:13;13.60;99.90
9939;DHT22;5008;50.656;7.188;2023-04-01T12:42:52;13.70;99.90
9939;DHT22;5008;50.656;7.188;2023-04-01T12:45:30;13.70;99.90
9939;DHT22;5008;50.656;7.188;2023-04-01T12:48:31;13.60;99.90
9939;DHT22;5008;50.656;7.188;2023-04-01T12:51:27;13.40;99.90
9939;DHT22;5008;50.656;7.188;2023-04-01T12:57:26;12.90;99.90
9939;DHT22;5008;50.656;7.188;2023-04-01T13:00:12;12.50;99.90
9939;DHT22;5008;50.656;7.188;2023-04-01T13:03:00;12.40;99.90
9939;DHT22;5008;50.656;7.188;2023-04-01T13:06:06;12.30;99.90
9939;DHT22;5008;50.656;7.188;2023-04-01T13:08:48;12.30;99.90
9939;DHT22;5008;50.656;7.188;2023-04-01T13:11:24;12.20;99.90
9939;DHT22;5008;50.656;7.188;2023-04-01T13:14:25;12.20;99.90
9939;DHT22;5008;50.656;7.188;2023-04-01T13:17:04;12.20;99.90
9939;DHT22;5008;50.656;7.188;2023-04-01T13:19:40;12.30;99.90
9939;DHT22;5008;50.656;7.188;2023-04-01T13:22:14;12.20;99.90
9939;DHT22;5008;50.656;7.188;2023-04-01T13:24:48;12.20;99.90
9939;DHT22;5008;50.656;7.188;2023-04-01T13:27:19;12.20;99.90
9939;DHT22;5008;50.656;7.188;2023-04-01T13:29:59;12.20;99.90
9939;DHT22;5008;50.656;7.188;2023-04-01T13:32:33;12.30;99.90
9939;DHT22;5008;50.656;7.188;2023-04-01T13:35:16;12.30;99.90
9939;DHT22;5008;50.656;7.188;2023-04-01T13:37:54;12.30;99.90
9939;DHT22;5008;50.656;7.188;2023-04-01T13:40:33;12.30;99.90
9939;DHT22;5008;50.656;7.188;2023-04-01T13:43:10;12.40;99.90
9939;DHT22;5008;50.656;7.188;2023-04-01T13:45:50;12.60;99.90
9939;DHT22;5008;50.656;7.188;2023-04-01T13:48:42;12.90;99.90
9939;DHT22;5008;50.656;7.188;2023-04-01T13:51:44;13.10;99.90
9939;DHT22;5008;50.656;7.188;2023-04-01T14:00:31;13.80;99.90
9939;DHT22;5008;50.656;7.188;2023-04-01T14:03:24;14.00;99.90
9939;DHT22;5008;50.656;7.188;2023-04-01T14:06:25;14.00;99.90
9939;DHT22;5008;50.656;7.188;2023-04-01T14:09:04;13.80;99.90
9939;DHT22;5008;50.656;7.188;2023-04-01T14:11:38;13.60;99.90
9939;DHT22;5008;50.656;7.188;2023-04-01T14:14:14;13.20;99.90
9939;DHT22;5008;50.656;7.188;2023-04-01T14:16:56;12.90;99.90
9939;DHT22;5008;50.656;7.188;2023-04-01T14:19:38;13.30;99.90
9939;DHT22;5008;50.656;7.188;2023-04-01T14:22:13;13.60;99.90
9939;DHT22;5008;50.656;7.188;2023-04-01T14:25:16;13.80;99.90
9939;DHT22;5008;50.656;7.188;2023-04-01T14:27:54;13.90;99.90
9939;DHT22;5008;50.656;7.188;2023-04-01T14:30:43;13.90;99.90
9939;DHT22;5008;50.656;7.188;2023-04-01T14:33:21;13.90;99.90
9939;DHT22;5008;50.656;7.188;2023-04-01T14:35:58;13.90;99.90
9939;DHT22;5008;50.656;7.188;2023-04-01T14:38:47;13.80;99.90
9939;DHT22;5008;50.656;7.188;2023-04-01T14:41:21;13.60;99.90
9939;DHT22;5008;50.656;7.188;2023-04-01T14:47:28;13.40;99.90
9939;DHT22;5008;50.656;7.188;2023-04-01T14:50:08;13.40;99.90
9939;DHT22;5008;50.656;7.188;2023-04-01T14:52:38;13.30;99.90
9939;DHT22;5008;50.656;7.188;2023-04-01T14:55:20;13.30;99.90
9939;DHT22;5008;50.656;7.188;2023-04-01T14:58:07;13.30;99.90
9939;DHT22;5008;50.656;7.188;2023-04-01T15:01:11;13.00;99.90
9939;DHT22;5008;50.656;7.188;2023-04-01T15:03:52;12.90;99.90
9939;DHT22;5008;50.656;7.188;2023-04-01T15:06:39;12.80;99.90
9939;DHT22;5008;50.656;7.188;2023-04-01T15:09:14;12.90;99.90
9939;DHT22;5008;50.656;7.188;2023-04-01T15:11:51;12.90;99.90
9939;DHT22;5008;50.656;7.188;2023-04-01T15:17:28;12.90;99.90
9939;DHT22;5008;50.656;7.188;2023-04-01T15:20:10;13.00;99.90
9939;DHT22;5008;50.656;7.188;2023-04-01T15:22:57;13.00;99.90
9939;DHT22;5008;50.656;7.188;2023-04-01T15:25:37;12.90;99.90
9939;DHT22;5008;50.656;7.188;2023-04-01T15:28:19;12.80;99.90
9939;DHT22;5008;50.656;7.188;2023-04-01T15:30:54;12.70;99.90
9939;DHT22;5008;50.656;7.188;2023-04-01T15:33:42;12.70;99.90
9939;DHT22;5008;50.656;7.188;2023-04-01T15:36:25;12.40;99.90
9939;DHT22;5008;50.656;7.188;2023-04-01T15:39:00;12.30;99.90
9939;DHT22;5008;50.656;7.188;2023-04-01T15:41:40;12.40;99.90
9939;DHT22;5008;50.656;7.188;2023-04-01T15:44:36;12.30;99.90
9939;DHT22;5008;50.656;7.188;2023-04-01T15:47:17;12.40;99.90
9939;DHT22;5008;50.656;7.188;2023-04-01T15:49:57;12.60;99.90
9939;DHT22;5008;50.656;7.188;2023-04-01T15:52:37;12.60;99.90
9939;DHT22;5008;50.656;7.188;2023-04-01T15:55:20;12.60;99.90
9939;DHT22;5008;50.656;7.188;2023-04-01T15:58:01;12.50;99.90
9939;DHT22;5008;50.656;7.188;2023-04-01T16:00:42;12.40;99.90
9939;DHT22;5008;50.656;7.188;2023-04-01T16:03:23;12.30;99.90
9939;DHT22;5008;50.656;7.188;2023-04-01T16:06:17;12.20;99.90
9939;DHT22;5008;50.656;7.188;2023-04-01T16:09:02;12.10;99.90
9939;DHT22;5008;50.656;7.188;2023-04-01T16:11:36;12.00;99.90
9939;DHT22;5008;50.656;7.188;2023-04-01T16:14:13;12.00;99.90
9939;DHT22;5008;50.656;7.188;2023-04-01T16:17:02;11.90;99.90
9939;DHT22;5008;50.656;7.188;2023-04-01T16:22:05;11.80;99.90
9939;DHT22;5008;50.656;7.188;2023-04-01T16:24:38;11.70;99.90
9939;DHT22;5008;50.656;7.188;2023-04-01T16:27:11;11.80;99.90
9939;DHT22;5008;50.656;7.188;2023-04-01T16:29:46;11.80;99.90
9939;DHT22;5008;50.656;7.188;2023-04-01T16:32:27;11.80;99.90
9939;DHT22;5008;50.656;7.188;2023-04-01T16:35:04;11.80;99.90
9939;DHT22;5008;50.656;7.188;2023-04-01T16:37:42;11.80;99.90
9939;DHT22;5008;50.656;7.188;2023-04-01T16:40:16;11.80;99.90
9939;DHT22;5008;50.656;7.188;2023-04-01T16:42:51;11.80;99.90
9939;DHT22;5008;50.656;7.188;2023-04-01T16:45:32;11.80;99.90
9939;DHT22;5008;50.656;7.188;2023-04-01T16:48:07;11.80;99.90
9939;DHT22;5008;50.656;7.188;2023-04-01T16:50:44;11.90;99.90
9939;DHT22;5008;50.656;7.188;2023-04-01T16:53:17;12.00;99.90
9939;DHT22;5008;50.656;7.188;2023-04-01T16:55:49;12.00;99.90
9939;DHT22;5008;50.656;7.188;2023-04-01T16:58:23;12.00;99.90
9939;DHT22;5008;50.656;7.188;2023-04-01T17:00:55;11.90;99.90
9939;DHT22;5008;50.656;7.188;2023-04-01T17:03:29;12.00;99.90
9939;DHT22;5008;50.656;7.188;2023-04-01T17:06:07;12.00;99.90
9939;DHT22;5008;50.656;7.188;2023-04-01T17:08:55;12.00;99.90
9939;DHT22;5008;50.656;7.188;2023-04-01T17:11:26;11.90;99.90
9939;DHT22;5008;50.656;7.188;2023-04-01T17:14:03;11.90;99.90
9939;DHT22;5008;50.656;7.188;2023-04-01T17:16:57;11.90;99.90
9939;DHT22;5008;50.656;7.188;2023-04-01T17:19:40;11.80;99.90
9939;DHT22;5008;50.656;7.188;2023-04-01T17:22:22;11.70;99.90
9939;DHT22;5008;50.656;7.188;2023-04-01T17:25:09;11.70;99.90
9939;DHT22;5008;50.656;7.188;2023-04-01T17:27:44;11.60;99.90
9939;DHT22;5008;50.656;7.188;2023-04-01T17:30:24;11.60;99.90
9939;DHT22;5008;50.656;7.188;2023-04-01T17:33:18;11.80;99.90
9939;DHT22;5008;50.656;7.188;2023-04-01T17:35:56;11.60;99.90
9939;DHT22;5008;50.656;7.188;2023-04-01T17:38:37;11.50;99.90
9939;DHT22;5008;50.656;7.188;2023-04-01T17:41:11;11.40;99.90
9939;DHT22;5008;50.656;7.188;2023-04-01T17:43:45;11.30;99.90
9939;DHT22;5008;50.656;7.188;2023-04-01T17:46:31;11.30;99.90
9939;DHT22;5008;50.656;7.188;2023-04-01T17:49:05;11.30;99.90
9939;DHT22;5008;50.656;7.188;2023-04-01T17:51:43;11.20;99.90
9939;DHT22;5008;50.656;7.188;2023-04-01T17:54:19;11.20;99.90
9939;DHT22;5008;50.656;7.188;2023-04-01T17:56:57;11.20;99.90
9939;DHT22;5008;50.656;7.188;2023-04-01T17:59:35;11.10;99.90
9939;DHT22;5008;50.656;7.188;2023-04-01T18:02:15;11.10;99.90
9939;DHT22;5008;50.656;7.188;2023-04-01T18:05:10;11.10;99.90
9939;DHT22;5008;50.656;7.188;2023-04-01T18:08:01;11.00;99.90
9939;DHT22;5008;50.656;7.188;2023-04-01T18:10:38;10.90;99.90
9939;DHT22;5008;50.656;7.188;2023-04-01T18:13:30;10.90;99.90
9939;DHT22;5008;50.656;7.188;2023-04-01T18:16:15;10.90;99.90
9939;DHT22;5008;50.656;7.188;2023-04-01T18:18:52;10.90;99.90
9939;DHT22;5008;50.656;7.188;2023-04-01T18:21:33;10.90;99.90
9939;DHT22;5008;50.656;7.188;2023-04-01T18:24:13;10.70;99.90
9939;DHT22;5008;50.656;7.188;2023-04-01T18:26:44;10.70;99.90
9939;DHT22;5008;50.656;7.188;2023-04-01T18:29:23;10.80;99.90
9939;DHT22;5008;50.656;7.188;2023-04-01T18:32:08;10.70;99.90
9939;DHT22;5008;50.656;7.188;2023-04-01T18:34:52;10.70;99.90
9939;DHT22;5008;50.656;7.188;2023-04-01T18:37:24;10.60;99.90
9939;DHT22;5008;50.656;7.188;2023-04-01T18:39:57;10.60;99.90
9939;DHT22;5008;50.656;7.188;2023-04-01T18:42:38;10.60;99.90
9939;DHT22;5008;50.656;7.188;2023-04-01T18:45:19;10.60;99.90
9939;DHT22;5008;50.656;7.188;2023-04-01T18:47:54;10.60;99.90
9939;DHT22;5008;50.656;7.188;2023-04-01T18:50:26;10.70;99.90
9939;DHT22;5008;50.656;7.188;2023-04-01T18:52:58;10.60;99.90
9939;DHT22;5008;50.656;7.188;2023-04-01T18:55:39;10.60;99.90
9939;DHT22;5008;50.656;7.188;2023-04-01T18:58:17;10.60;99.90
9939;DHT22;5008;50.656;7.188;2023-04-01T19:00:49;10.50;99.90
9939;DHT22;5008;50.656;7.188;2023-04-01T19:03:22;10.50;99.90
9939;DHT22;5008;50.656;7.188;2023-04-01T19:05:52;10.50;99.90
9939;DHT22;5008;50.656;7.188;2023-04-01T19:08:30;10.50;99.90
9939;DHT22;5008;50.656;7.188;2023-04-01T19:11:05;10.50;99.90
9939;DHT22;5008;50.656;7.188;2023-04-01T19:13:40;10.40;99.90
9939;DHT22;5008;50.656;7.188;2023-04-01T19:16:21;10.40;99.90
9939;DHT22;5008;50.656;7.188;2023-04-01T19:19:06;10.40;99.90
9939;DHT22;5008;50.656;7.188;2023-04-01T19:21:38;10.40;99.90
9939;DHT22;5008;50.656;7.188;2023-04-01T19:24:45;10.40;99.90
9939;DHT22;5008;50.656;7.188;2023-04-01T19:27:24;10.40;99.90
9939;DHT22;5008;50.656;7.188;2023-04-01T19:30:08;10.40;99.90
9939;DHT22;5008;50.656;7.188;2023-04-01T19:32:48;10.30;99.90
9939;DHT22;5008;50.656;7.188;2023-04-01T19:35:24;10.40;99.90
9939;DHT22;5008;50.656;7.188;2023-04-01T19:37:59;10.40;99.90
9939;DHT22;5008;50.656;7.188;2023-04-01T19:40:37;10.50;99.90
9939;DHT22;5008;50.656;7.188;2023-04-01T19:43:14;10.40;99.90
9939;DHT22;5008;50.656;7.188;2023-04-01T19:45:49;10.40;99.90
9939;DHT22;5008;50.656;7.188;2023-04-01T19:48:34;10.40;99.90
9939;DHT22;5008;50.656;7.188;2023-04-01T19:51:07;10.40;99.90
9939;DHT22;5008;50.656;7.188;2023-04-01T19:53:39;10.40;99.90
9939;DHT22;5008;50.656;7.188;2023-04-01T19:56:13;10.40;99.90
9939;DHT22;5008;50.656;7.188;2023-04-01T19:58:45;10.40;99.90
9939;DHT22;5008;50.656;7.188;2023-04-01T20:01:20;10.40;99.90
9939;DHT22;5008;50.656;7.188;2023-04-01T20:03:51;10.40;99.90
9939;DHT22;5008;50.656;7.188;2023-04-01T20:06:25;10.40;99.90
9939;DHT22;5008;50.656;7.188;2023-04-01T20:09:07;10.40;99.90
9939;DHT22;5008;50.656;7.188;2023-04-01T20:11:48;10.40;99.90
9939;DHT22;5008;50.656;7.188;2023-04-01T20:14:26;10.40;99.90
9939;DHT22;5008;50.656;7.188;2023-04-01T20:17:17;10.40;99.90
9939;DHT22;5008;50.656;7.188;2023-04-01T20:19:52;10.40;99.90
9939;DHT22;5008;50.656;7.188;2023-04-01T20:22:37;10.30;99.90
9939;DHT22;5008;50.656;7.188;2023-04-01T20:25:11;10.40;99.90
9939;DHT22;5008;50.656;7.188;2023-04-01T20:27:44;10.30;99.90
9939;DHT22;5008;50.656;7.188;2023-04-01T20:30:31;10.30;99.90
9939;DHT22;5008;50.656;7.188;2023-04-01T20:33:13;10.30;99.90
9939;DHT22;5008;50.656;7.188;2023-04-01T20:35:51;10.20;99.90
9939;DHT22;5008;50.656;7.188;2023-04-01T20:38:58;10.40;99.90
9939;DHT22;5008;50.656;7.188;2023-04-01T20:41:33;10.30;99.90
9939;DHT22;5008;50.656;7.188;2023-04-01T20:44:06;10.30;99.90
9939;DHT22;5008;50.656;7.188;2023-04-01T20:46:46;10.20;99.90
9939;DHT22;5008;50.656;7.188;2023-04-01T20:52:25;10.20;99.90
9939;DHT22;5008;50.656;7.188;2023-04-01T20:55:24;10.20;99.90
9939;DHT22;5008;50.656;7.188;2023-04-01T20:58:06;10.20;99.90
